^^
Datos históricos de la estación: Murcia-Puente Tocinos
Diario Informe para Mayo 22, 2019 Unidades:  Ingés    Métrico   Ambas
Diario Semanal Mensual Anual
  Máxima: Mínima: Promedio:
Temperatura: 90.9 °F 76.5 °F 83.5 °F
Punto de rocio: 67.5 °F 52.2 °F 62.4 °F
Humedad: 66.6% 27.6% 51%
Velocidad viento: 14mph 0mph 6.6mph
Racha viento: 25.3mph - -
Viento- - ESE
Presión: 30.1 in 30 in -
Precipitación: 0 in    
 
 
Tabla de datos para Mayo 22, 2019
Hora Temperatura Punto de rocio Presión Viento Velocidad viento Racha viento Humedad Intensidad lluvia(por hora) Nubes
00:04 79.9 °F 67.5 °F 30.1 in NE 5.9 mph 10 mph 65.8% 0 in
00:09 79.7 °F 67.3 °F 30.1 in NE 5.8 mph 10.4 mph 65.7% 0 in
00:14 79.5 °F 67.3 °F 30.1 in NE 5.4 mph 10 mph 66% 0 in
00:19 79.5 °F 67.1 °F 30.1 in NE 5.1 mph 8.1 mph 65.9% 0 in
00:24 79.3 °F 67.1 °F 30.1 in NNE 4.3 mph 8 mph 66% 0 in
00:29 79.3 °F 66.9 °F 30.1 in North 3.8 mph 6 mph 66% 0 in
00:34 79.3 °F 66.9 °F 30.1 in NNE 2.4 mph 5.2 mph 66% 0 in
00:39 79.3 °F 66.9 °F 30.1 in NE 2.3 mph 5 mph 66% 0 in
00:44 79.3 °F 66.9 °F 30.1 in North 2 mph 5 mph 66% 0 in
00:49 79.3 °F 66.9 °F 30.1 in North 1.9 mph 5 mph 66% 0 in
00:54 79.3 °F 66.9 °F 30.1 in North 1.8 mph 4 mph 66% 0 in
00:59 79.3 °F 66.9 °F 30.1 in NO 1.8 mph 4 mph 66% 0 in
01:04 79.2 °F 66.9 °F 30.1 in NO 1.8 mph 3.5 mph 66% 0 in
01:09 79.2 °F 66.7 °F 30.1 in NO 1.8 mph 3.5 mph 66% 0 in
01:14 79.2 °F 66.7 °F 30.1 in NO 1.8 mph 4.6 mph 65.9% 0 in
01:19 79.2 °F 66.4 °F 30.1 in NO 2 mph 5 mph 65% 0 in
01:24 79.2 °F 66.4 °F 30.1 in NO 2.4 mph 5 mph 65% 0 in
01:29 79.2 °F 66.4 °F 30.1 in NO 2.1 mph 4 mph 65% 0 in
01:34 79.2 °F 66.4 °F 30.1 in NO 1.4 mph 2.9 mph 65% 0 in
01:39 79.2 °F 66.4 °F 30.1 in NO 1 mph 3 mph 65% 0 in
01:44 79.2 °F 66.4 °F 30.1 in Calm   2 mph 65% 0 in
01:49 79.2 °F 66.4 °F 30.1 in Calm   3.5 mph 65% 0 in
01:54 79.2 °F 66.4 °F 30.1 in Calm   3.6 mph 65% 0 in
01:59 79.2 °F 66.4 °F 30.1 in NNO 0.7 mph 5.2 mph 65% 0 in
02:04 79.2 °F 66 °F 30.1 in ONO 2.4 mph 5 mph 64.4% 0 in
02:09 79 °F 65.8 °F 30.1 in ONO 2.4 mph 5 mph 64% 0 in
02:14 79 °F 65.8 °F 30.1 in ONO 2.4 mph 5 mph 64% 0 in
02:19 79 °F 65.8 °F 30.1 in ONO 2.1 mph 4.7 mph 64% 0 in
02:24 79.2 °F 65.8 °F 30.1 in OSO 1.4 mph 5 mph 64% 0 in
02:29 79.2 °F 65.8 °F 30.1 in OSO 1.7 mph 5 mph 64% 0 in
02:34 79.2 °F 65.7 °F 30.1 in OSO 2.4 mph 5 mph 63.5% 0 in
02:39 79.2 °F 65.5 °F 30.1 in Oeste 2.2 mph 4.6 mph 63% 0 in
02:44 79.3 °F 65.7 °F 30.1 in OSO 1.8 mph 5 mph 63% 0 in
02:49 79.3 °F 65.3 °F 30.1 in OSO 1.9 mph 5 mph 62.2% 0 in
02:54 79.5 °F 65.5 °F 30.1 in OSO 2 mph 5 mph 62% 0 in
02:59 79.5 °F 65.1 °F 30.1 in OSO 1.9 mph 4 mph 61.4% 0 in
03:04 79.7 °F 65.1 °F 30.1 in OSO 1.8 mph 3 mph 61% 0 in
03:09 79.7 °F 65.3 °F 30.1 in OSO 1.3 mph   61.3% 0 in
03:14 79.9 °F 65.7 °F 30.1 in Calm     62% 0 in
03:19 79.9 °F 65.7 °F 30.1 in Calm     62% 0 in
03:24 79.5 °F 65.5 °F 30.1 in Calm   5.9 mph 62% 0 in
03:29 79.5 °F 65.8 °F 30.1 in SSO 0.7 mph 6.9 mph 62.9% 0 in
03:34 79.3 °F 65.8 °F 30.1 in Sur 2.9 mph 7 mph 63.5% 0 in
03:39 79.2 °F 66.2 °F 30.1 in SSO 3.2 mph 6.9 mph 64.3% 0 in
03:44 79.2 °F 66.4 °F 30.1 in Sur 4 mph 7.6 mph 65% 0 in
03:49 79 °F 66.4 °F 30.1 in Sur 4.3 mph 8.1 mph 65.7% 0 in
03:54 78.8 °F 66.6 °F 30.1 in SSO 5.2 mph 8 mph 66% 0 in
03:59 79 °F 66.6 °F 30.1 in SO 4.8 mph 6.9 mph 66% 0 in
04:04 79 °F 66.6 °F 30.1 in SO 4 mph 7 mph 66% 0 in
04:09 79 °F 66.6 °F 30.1 in SO 4.1 mph 6.9 mph 66% 0 in
04:14 79 °F 66.6 °F 30.1 in SSO 4.3 mph 7 mph 66% 0 in
04:19 79 °F 66.6 °F 30.1 in SSO 4.2 mph 7.4 mph 66% 0 in
04:24 78.8 °F 66.4 °F 30.1 in SSO 4 mph 7 mph 66% 0 in
04:29 78.6 °F 66.4 °F 30.1 in SSO 4.2 mph 7 mph 66% 0 in
04:34 78.6 °F 66.2 °F 30.1 in Sur 4.7 mph 7 mph 66% 0 in
04:39 78.4 °F 66.2 °F 30.1 in SSO 4.2 mph 6 mph 66% 0 in
04:44 78.4 °F 66 °F 30.1 in SSO 2.9 mph 5 mph 66% 0 in
04:49 78.4 °F 66 °F 30.1 in SSO 3.1 mph 5.8 mph 66% 0 in
04:54 78.3 °F 66 °F 30.1 in SSO 3.6 mph 6 mph 66.1% 0 in
04:59 78.3 °F 66 °F 30.1 in SSO 3.6 mph 6.2 mph 66.5% 0 in
05:04 78.1 °F 66 °F 30.1 in SSO 3.6 mph 6 mph 66.6% 0 in
05:09 78.1 °F 66 °F 30.1 in Sur 3.5 mph 6.2 mph 66.6% 0 in
05:14 77.9 °F 65.7 °F 30.1 in Sur 3.1 mph 6 mph 66% 0 in
05:19 77.9 °F 65.7 °F 30.1 in Sur 3.2 mph 6 mph 66% 0 in
05:24 77.7 °F 65.5 °F 30.1 in SSO 3.6 mph 6 mph 66% 0 in
05:29 77.7 °F 65.5 °F 30.1 in SSO 3.7 mph 6.2 mph 66% 0 in
05:34 77.7 °F 65.5 °F 30.1 in SSO 4 mph 6 mph 66% 0 in
05:39 77.5 °F 65.3 °F 30.1 in Sur 3.9 mph 6 mph 66% 0 in
05:44 77.5 °F 65.3 °F 30.1 in Sur 3.6 mph 6.9 mph 66% 0 in
05:49 77.4 °F 65.1 °F 30.1 in SSO 3.6 mph 7 mph 66% 0 in
05:54 77.4 °F 65.1 °F 30.1 in SSO 3.6 mph 6 mph 65.9% 0 in
05:59 77.2 °F 64.6 °F 30.1 in SO 3.7 mph 6 mph 65.1% 0 in
06:04 77.2 °F 64.6 °F 30.1 in SO 4 mph 6 mph 65% 0 in
06:09 77.2 °F 64.6 °F 30.1 in SO 3.7 mph 5 mph 65% 0 in
06:14 77.2 °F 64.6 °F 30.1 in SO 2.9 mph 5 mph 65% 0 in
06:19 77.2 °F 64.6 °F 30.1 in SSO 2.7 mph 5 mph 65% 0 in
06:24 77 °F 64.4 °F 30.1 in Sur 2.4 mph 6.2 mph 65% 0 in
06:29 77 °F 64.2 °F 30.1 in Sur 2.7 mph 6.9 mph 65% 0 in
06:34 76.8 °F 63.9 °F 30.1 in Sur 3.6 mph 8.1 mph 64.5% 0 in
06:39 76.6 °F 63.5 °F 30.1 in SSO 3.9 mph 8 mph 64% 0 in
06:44 76.6 °F 63.5 °F 30.1 in SSO 4.7 mph 8.1 mph 64% 0 in
06:49 76.6 °F 63.5 °F 30.1 in Sur 4.5 mph 8 mph 64% 0 in
06:54 76.5 °F 63.3 °F 30.1 in SO 4 mph 6.9 mph 64% 0 in
06:59 76.5 °F 63.3 °F 30.1 in SO 3.7 mph 7 mph 64% 0 in
07:04 76.5 °F 63.3 °F 30.1 in SO 3.1 mph 5 mph 64% 0 in
07:09 76.5 °F 63.3 °F 30.1 in SSO 3.1 mph 5.9 mph 64% 0 in
07:14 76.5 °F 63.5 °F 30.1 in SSO 3.1 mph 6.2 mph 64% 0 in
07:19 76.6 °F 63.5 °F 30.1 in SSO 3.4 mph 6.9 mph 64% 0 in
07:24 76.6 °F 63.5 °F 30.1 in SSO 4.3 mph 8.7 mph 64% 0 in
07:29 76.6 °F 63.5 °F 30.1 in SSO 4.6 mph 9.2 mph 64% 0 in
07:34 76.5 °F 63.5 °F 30.1 in SSO 5.2 mph 9.2 mph 64% 0 in
07:39 76.5 °F 63.7 °F 30.1 in SSO 5.2 mph 9 mph 64.5% 0 in
07:44 76.5 °F 63.5 °F 30.1 in SSO 5.2 mph 8 mph 64.3% 0 in
07:49 76.5 °F 63.7 °F 30.1 in SSO 5 mph 7 mph 64.7% 0 in
07:54 76.5 °F 63.7 °F 30.1 in SSO 4.7 mph 7 mph 64.7% 0 in
07:59 76.6 °F 63.5 °F 30.1 in SO 4.5 mph 6.2 mph 64% 0 in
08:04 76.6 °F 63.5 °F 30.1 in SO 4 mph 6 mph 63.9% 0 in
08:09 76.6 °F 63.3 °F 30.1 in SSO 3.7 mph 5.2 mph 63% 0 in
08:14 77 °F 63.5 °F 30.1 in SSO 3.1 mph 5.2 mph 63% 0 in
08:19 77.4 °F 63.7 °F 30.1 in Sur 3.1 mph 6.2 mph 63% 0 in
08:24 77.4 °F 63.7 °F 30.1 in Sur 3.1 mph 6 mph 62.6% 0 in
08:29 77.5 °F 63.5 °F 30.1 in Sur 3.1 mph 5.4 mph 62% 0 in
08:34 77.5 °F 63.3 °F 30.1 in SSO 3.1 mph 6 mph 61.5% 0 in
08:39 77.7 °F 63.3 °F 30.1 in Sur 3.1 mph 6 mph 61.1% 0 in
08:44 77.9 °F 63.3 °F 30.1 in Sur 3.1 mph 5 mph 61% 0 in
08:49 78.3 °F 63.3 °F 30.1 in Sur 3 mph 5 mph 60.5% 0 in
08:54 78.4 °F 63.3 °F 30.1 in Oeste 2.9 mph 5 mph 59.7% 0 in
08:59 78.8 °F 63.3 °F 30.1 in OSO 2.5 mph 4.6 mph 59% 0 in
09:04 79.2 °F 63.1 °F 30.1 in SO 1.8 mph 5 mph 58.1% 0 in
09:09 79.3 °F 62.8 °F 30.1 in ONO 2 mph 5.2 mph 57% 0 in
09:14 79.3 °F 62.6 °F 30.1 in Oeste 2.4 mph 5 mph 56.6% 0 in
09:19 79.7 °F 62.6 °F 30.1 in NO 2.4 mph 5 mph 55.8% 0 in
09:24 80.1 °F 62.4 °F 30.1 in NO 2.4 mph 5 mph 55% 0 in
09:29 80.4 °F 62.4 °F 30.1 in Oeste 2.4 mph 5 mph 54.3% 0 in
09:34 81 °F 62.4 °F 30.1 in Oeste 2.4 mph 5 mph 53.6% 0 in
09:39 81 °F 62.4 °F 30.1 in ONO 2.5 mph 5 mph 53.2% 0 in
09:44 81.3 °F 62.6 °F 30.1 in NNO 2.9 mph 5 mph 53% 0 in
09:49 81.9 °F 63.1 °F 30.1 in NE 2.7 mph 5 mph 53% 0 in
09:54 82.4 °F 63.3 °F 30.1 in NNE 2.4 mph 6.9 mph 52.4% 0 in
09:59 82.8 °F 63.5 °F 30.1 in NE 2.7 mph 8.1 mph 52.5% 0 in
10:04 82.8 °F 63.9 °F 30.1 in NE 3.6 mph 11.5 mph 53% 0 in
10:09 82.4 °F 63.9 °F 30.1 in NNE 4.3 mph 13.8 mph 53.5% 0 in
10:14 82.4 °F 64 °F 30.1 in NNE 6.4 mph 14 mph 54% 0 in
10:19 82.6 °F 64.2 °F 30.1 in NNE 6.3 mph 12 mph 54% 0 in
10:24 82.8 °F 64.2 °F 30.1 in NNE 5.9 mph 10 mph 53.7% 0 in
10:29 82.9 °F 64 °F 30.1 in NE 6 mph 11.4 mph 52.8% 0 in
10:34 83.1 °F 63.9 °F 30.1 in NNE 6.2 mph 12 mph 52.2% 0 in
10:39 83.5 °F 63.9 °F 30.1 in NNE 6.3 mph 15 mph 51.7% 0 in
10:44 83.5 °F 64.2 °F 30.1 in NNE 6.4 mph 15 mph 52.4% 0 in
10:49 83.7 °F 64 °F 30.1 in NE 6.9 mph 17.5 mph 51.7% 0 in
10:54 83.8 °F 64.2 °F 30.1 in NE 8.1 mph 17 mph 51.8% 0 in
10:59 84 °F 64 °F 30.1 in NE 8.4 mph 16.1 mph 51.4% 0 in
11:04 84.2 °F 64.2 °F 30.1 in NE 9.2 mph 16 mph 51.2% 0 in
11:09 84.7 °F 64 °F 30.1 in NNE 8.8 mph 15 mph 50% 0 in
11:14 84.9 °F 63.5 °F 30.1 in NNE 7.6 mph 16.8 mph 48.9% 0 in
11:19 85.3 °F 63.3 °F 30.1 in NE 8.3 mph 17.3 mph 47.8% 0 in
11:24 85.5 °F 62.8 °F 30.1 in NE 10 mph 17 mph 46.8% 0 in
11:29 85.6 °F 60.1 °F 30.1 in NNE 10.1 mph 18.4 mph 42.3% 0 in
11:34 86 °F 59.2 °F 30.1 in NE 10.2 mph 18 mph 40.4% 0 in
11:39 86.4 °F 58.5 °F 30.1 in NE 10.6 mph 20.8 mph 39% 0 in
11:44 86.7 °F 58.5 °F 30.1 in NNE 11.8 mph 21 mph 38.3% 0 in
11:49 87.4 °F 56.8 °F 30.1 in NE 11.3 mph 17.5 mph 35.6% 0 in
11:54 88 °F 57 °F 30.1 in NE 10 mph 19.6 mph 35.1% 0 in
11:59 88 °F 56.1 °F 30.1 in NE 10.1 mph 20 mph 34.2% 0 in
12:04 88 °F 56.5 °F 30.1 in NE 10.2 mph 18 mph 34.6% 0 in
12:09 88.2 °F 55.4 °F 30.1 in NE 10.1 mph 20.7 mph 33% 0 in
12:14 88.2 °F 55 °F 30.1 in NE 10 mph 21 mph 32.6% 0 in
12:19 88.2 °F 55.9 °F 30.1 in NE 10.2 mph 20 mph 33.6% 0 in
12:24 88.2 °F 55.6 °F 30.1 in NE 10.7 mph 17 mph 33.2% 0 in
12:29 88.5 °F 56.3 °F 30.1 in NE 10.7 mph 16.3 mph 33.7% 0 in
12:34 88.5 °F 55.6 °F 30.1 in NE 10.7 mph 16.1 mph 32.7% 0 in
12:39 89.1 °F 55.4 °F 30.1 in NE 10.4 mph 16.8 mph 32% 0 in
12:44 89.1 °F 55.2 °F 30.1 in NE 9.7 mph 17.3 mph 31.8% 0 in
12:49 89.4 °F 54.1 °F 30.1 in NE 9.8 mph 19 mph 30.3% 0 in
12:54 89.2 °F 53.4 °F 30.1 in NE 10.2 mph 21.3 mph 29.6% 0 in
12:59 89.4 °F 52.2 °F 30.1 in NE 10.6 mph 21.9 mph 28.3% 0 in
13:04 89.8 °F 52.5 °F 30.1 in ENE 11.4 mph 22 mph 28.2% 0 in
13:09 90 °F 52.2 °F 30.1 in NE 11.1 mph 18 mph 27.6% 0 in
13:14 90.1 °F 53.6 °F 30.1 in NE 10.2 mph 19 mph 29% 0 in
13:19 89.8 °F 54 °F 30.1 in ENE 10.5 mph 19 mph 29.7% 0 in
13:24 90.1 °F 55.6 °F 30.1 in ENE 11.2 mph 18.4 mph 31.2% 0 in
13:29 90.1 °F 55.6 °F 30.1 in NE 10.9 mph 18 mph 31.1% 0 in
13:34 90 °F 55.8 °F 30.1 in NE 10 mph 19 mph 31.6% 0 in
13:39 89.8 °F 57 °F 30.1 in NE 10.2 mph 19 mph 33.2% 0 in
13:44 89.8 °F 56.8 °F 30.1 in ENE 10.7 mph 19.6 mph 33.1% 0 in
13:49 89.8 °F 56.3 °F 30.1 in NE 10.5 mph 20 mph 32.4% 0 in
13:54 89.4 °F 56.3 °F 30.1 in NE 10 mph 18 mph 32.8% 0 in
13:59 89.8 °F 58.1 °F 30.1 in NE 10.3 mph 19.6 mph 34.6% 0 in
14:04 89.6 °F 58.5 °F 30.1 in NE 10.7 mph 21.3 mph 35.2% 0 in
14:09 89.4 °F 58.8 °F 30.1 in NE 10.9 mph 21 mph 35.8% 0 in
14:14 89.4 °F 59.4 °F 30.1 in NE 11.8 mph 19.6 mph 36.4% 0 in
14:19 89.2 °F 58.8 °F 30.1 in NE 11.7 mph 20 mph 36% 0 in
14:24 89.4 °F 59.7 °F 30.1 in NE 11.4 mph 18.4 mph 37% 0 in
14:29 89.6 °F 59.4 °F 30.1 in NE 11.4 mph 19 mph 36.3% 0 in
14:34 89.6 °F 59.4 °F 30.1 in NE 11.4 mph 19 mph 36.3% 0 in
14:39 90 °F 60.1 °F 30.1 in NE 11.1 mph 23.5 mph 36.9% 0 in
14:44 89.4 °F 59.7 °F 30.1 in NE 10.2 mph 23 mph 36.9% 0 in
14:49 89.8 °F 59.4 °F 30.1 in NE 10.5 mph 19.6 mph 36.2% 0 in
14:54 89.8 °F 59.4 °F 30.1 in NE 11.4 mph 22.3 mph 36% 0 in
14:59 89.6 °F 59.2 °F 30.1 in NE 11.9 mph 22 mph 36.1% 0 in
15:04 90 °F 59.5 °F 30.1 in NE 13 mph 21.9 mph 36.3% 0 in
15:09 90 °F 59.9 °F 30.1 in NE 13.1 mph 22 mph 36.5% 0 in
15:14 90.5 °F 59.9 °F 30.1 in NE 13.5 mph 21 mph 36% 0 in
15:19 90.3 °F 60.6 °F 30.1 in NE 12.7 mph 20 mph 37.1% 0 in
15:24 90.3 °F 60.6 °F 30.1 in NE 10.7 mph 19 mph 37.2% 0 in
15:29 90.3 °F 60.4 °F 30.1 in ENE 10.5 mph 21.9 mph 37% 0 in
15:34 90.5 °F 60.6 °F 30.1 in ENE 10 mph 22 mph 37% 0 in
15:39 90.5 °F 60.6 °F 30.1 in NE 10 mph 21 mph 37% 0 in
15:44 90.7 °F 60.8 °F 30.1 in ENE 10 mph 18.4 mph 37.1% 0 in
15:49 90.7 °F 60.8 °F 30.1 in ENE 10.2 mph 21.3 mph 37% 0 in
15:54 90.5 °F 60.6 °F 30 in ENE 10.7 mph 21 mph 37.1% 0 in
15:59 90.1 °F 61.2 °F 30 in ENE 10.9 mph 21 mph 37.9% 0 in
16:04 90.7 °F 61.2 °F 30 in NE 11.2 mph 20.7 mph 37.5% 0 in
16:09 90.7 °F 61.2 °F 30 in NE 10.9 mph 21 mph 37.5% 0 in
16:14 90.7 °F 60.8 °F 30 in ENE 10.2 mph 21 mph 37.1% 0 in
16:19 90.1 °F 61 °F 30 in ENE 10.1 mph 20.7 mph 37.6% 0 in
16:24 90.1 °F 60.3 °F 30 in NE 9.7 mph 21 mph 36.6% 0 in
16:29 90.5 °F 59.9 °F 30 in NE 9.8 mph 19 mph 35.9% 0 in
16:34 90.7 °F 59.7 °F 30 in NE 10.2 mph 17.3 mph 35.5% 0 in
16:39 90.9 °F 57.7 °F 30 in NE 10.3 mph 18.4 mph 33.1% 0 in
16:44 90.9 °F 59.7 °F 30 in ENE 10.7 mph 19 mph 35.5% 0 in
16:49 90.7 °F 59 °F 30 in NE 10.7 mph 19 mph 34.6% 0 in
16:54 90.7 °F 56.3 °F 30 in NE 10.7 mph 21.9 mph 31.4% 0 in
16:59 90.7 °F 56.8 °F 30 in NE 11.3 mph 22 mph 32% 0 in
17:04 90.5 °F 57.9 °F 30 in NE 12.5 mph 22 mph 33.7% 0 in
17:09 90.3 °F 57.7 °F 30 in NE 12.3 mph 21 mph 33.5% 0 in
17:14 90.9 °F 56.5 °F 30 in NE 11.8 mph 24.2 mph 31.6% 0 in
17:19 90.7 °F 56.3 °F 30 in NE 11.9 mph 24 mph 31.4% 0 in
17:24 90.3 °F 55.9 °F 30 in NE 12.3 mph 23 mph 31.4% 0 in
17:29 90.3 °F 58.3 °F 30 in NE 12.6 mph 23 mph 34% 0 in
17:34 90.5 °F 57.2 °F 30 in NE 13.5 mph 21 mph 32.8% 0 in
17:39 90.9 °F 58.3 °F 30 in NE 12.7 mph 18 mph 33.6% 0 in
17:44 90.7 °F 59 °F 30 in NE 10.7 mph 19 mph 34.6% 0 in
17:49 90.3 °F 61.2 °F 30 in ENE 10.8 mph 19.7 mph 37.8% 0 in
17:54 90 °F 59.5 °F 30 in NE 11.2 mph 24.6 mph 36.2% 0 in
17:59 89.8 °F 58.3 °F 30 in NE 11.6 mph 25 mph 34.6% 0 in
18:04 90 °F 59.5 °F 30 in NE 12.5 mph 22.3 mph 36.3% 0 in
18:09 89.6 °F 59.5 °F 30 in NE 12.8 mph 22 mph 36.4% 0 in
18:14 89.4 °F 58.8 °F 30 in NE 13.5 mph 23 mph 35.9% 0 in
18:19 89.4 °F 58.8 °F 30 in NE 13.2 mph 23.5 mph 35.8% 0 in
18:24 89.6 °F 58.6 °F 30 in NE 12.5 mph 23 mph 35.3% 0 in
18:29 89.4 °F 57.9 °F 30 in NE 12.7 mph 22.3 mph 34.7% 0 in
18:34 89.2 °F 57 °F 30 in NE 13 mph 25.3 mph 33.7% 0 in
18:39 89.2 °F 56.8 °F 30 in NE 13.2 mph 25 mph 33.5% 0 in
18:44 89.2 °F 56.7 °F 30 in NE 13.5 mph 24.6 mph 33.3% 0 in
18:49 89.2 °F 57.2 °F 30 in NE 13.7 mph 25 mph 34% 0 in
18:54 89.1 °F 57.2 °F 30 in NE 14 mph 25.3 mph 34.3% 0 in
18:59 88.9 °F 58.3 °F 30 in NE 13.9 mph 25 mph 35.8% 0 in
19:04 88.9 °F 57.4 °F 30 in NE 13.7 mph 21.9 mph 34.6% 0 in
19:09 89.1 °F 57.6 °F 30 in NE 13.4 mph 22 mph 34.7% 0 in
19:14 88.9 °F 58.3 °F 30 in NE 12.3 mph 21.9 mph 35.7% 0 in
19:19 88.7 °F 58.5 °F 30 in NE 12.5 mph 22 mph 36.1% 0 in
19:24 88.3 °F 58.3 °F 30 in NE 13 mph 24.2 mph 36.3% 0 in
19:29 88.3 °F 58.6 °F 30 in NE 13.3 mph 24 mph 37% 0 in
19:34 88.2 °F 58.6 °F 30 in NE 14 mph 21 mph 37% 0 in
19:39 88.2 °F 58.5 °F 30 in NE 13.5 mph 20.7 mph 37% 0 in
19:44 88 °F 59 °F 30 in NE 12.5 mph 21 mph 37.8% 0 in
19:49 87.8 °F 61 °F 30 in NE 12.1 mph 19 mph 40.8% 0 in
19:54 87.6 °F 61.2 °F 30 in ENE 10.7 mph 18 mph 41.3% 0 in
19:59 87.4 °F 61.5 °F 30 in ENE 10.1 mph 17.5 mph 42% 0 in
20:04 87.3 °F 61.3 °F 30 in ENE 8.7 mph 17 mph 42% 0 in
20:09 86.9 °F 61.3 °F 30 in NE 8.3 mph 14.5 mph 42.3% 0 in
20:14 86.7 °F 61.5 °F 30 in ENE 7.4 mph 15 mph 43% 0 in
20:19 86.5 °F 61.7 °F 30 in NE 7.4 mph 15.9 mph 43.4% 0 in
20:24 86.2 °F 62.1 °F 30 in NE 7.4 mph 16.1 mph 44.5% 0 in
20:29 86 °F 62.2 °F 30 in ENE 7.6 mph 15 mph 45% 0 in
20:34 85.8 °F 62.2 °F 30 in NE 8.1 mph 13.8 mph 45.5% 0 in
20:39 85.6 °F 62.4 °F 30 in ENE 7.9 mph 14 mph 46% 0 in
20:44 85.5 °F 62.6 °F 30 in ENE 7.4 mph 14 mph 46.6% 0 in
20:49 85.3 °F 62.8 °F 30 in ENE 7 mph 14 mph 47% 0 in
20:54 85.3 °F 63 °F 30 in NE 5.9 mph 10 mph 47.3% 0 in
20:59 84.9 °F 63 °F 30 in ENE 5.7 mph 10 mph 47.9% 0 in
21:04 84.7 °F 63.5 °F 30 in ENE 5.4 mph 9.7 mph 48.9% 0 in
21:09 84.6 °F 63.3 °F 30 in NE 5.2 mph 10.7 mph 49% 0 in
21:14 84.2 °F 63.3 °F 30 in ENE 4.7 mph 12.3 mph 49.6% 0 in
21:19 83.8 °F 63.3 °F 30 in NE 4.9 mph 13 mph 50% 0 in
21:24 83.8 °F 63.7 °F 30 in ENE 5.4 mph 11.8 mph 50.9% 0 in
21:29 83.5 °F 63.9 °F 30 in ENE 5.4 mph 12 mph 51.6% 0 in
21:34 83.3 °F 63.9 °F 30 in ENE 5.4 mph 9.2 mph 52% 0 in
21:39 82.9 °F 63.9 °F 30 in NE 5.3 mph 9 mph 52.8% 0 in
21:44 82.9 °F 64 °F 30 in NE 5.2 mph 8.5 mph 53.1% 0 in
21:49 82.8 °F 64.4 °F 30 in ENE 5 mph 9 mph 54% 0 in
21:54 82.4 °F 64.2 °F 30 in NE 4.3 mph 11.2 mph 54.3% 0 in
21:59 82 °F 64.4 °F 30 in NE 4.9 mph 12 mph 55% 0 in
22:04 82 °F 64.6 °F 30 in NE 6.4 mph 12 mph 55.5% 0 in
22:09 81.9 °F 64.6 °F 30 in NE 6.7 mph 12 mph 56% 0 in
22:14 81.7 °F 65.1 °F 30 in NE 7.4 mph 12.7 mph 57.2% 0 in
22:19 81.3 °F 65.3 °F 30 in NE 7.6 mph 13 mph 58.1% 0 in
22:24 81.1 °F 65.7 °F 30 in NE 8.1 mph 13 mph 59.2% 0 in
22:29 81 °F 65.8 °F 30 in NE 7.8 mph 12 mph 60% 0 in
22:34 81 °F 65.8 °F 30 in NE 6.9 mph 11 mph 60.3% 0 in
22:39 80.8 °F 66 °F 30 in NE 6.7 mph 10 mph 61% 0 in
22:44 80.4 °F 65.7 °F 30 in NE 6.2 mph 10.4 mph 61% 0 in
22:49 80.4 °F 66.2 °F 30.1 in NE 6 mph 10 mph 61.9% 0 in
22:54 80.4 °F 66.2 °F 30.1 in NE 5.4 mph 7.4 mph 62% 0 in
22:59 80.2 °F 66 °F 30.1 in NE 5 mph 8.1 mph 62% 0 in
23:04 80.2 °F 66 °F 30.1 in NE 4.3 mph 8.1 mph 62% 0 in
23:09 80.1 °F 66.4 °F 30.1 in NE 4.5 mph 8.1 mph 62.9% 0 in
23:14 80.1 °F 66.4 °F 30.1 in NE 5.2 mph 9.2 mph 63% 0 in
23:19 80.1 °F 66.4 °F 30.1 in NNE 4.7 mph 9 mph 63% 0 in
23:24 79.9 °F 66.2 °F 30.1 in NO 3.6 mph 5 mph 63% 0 in
23:29 79.9 °F 66.2 °F 30.1 in NO 3.1 mph 4 mph 63.1% 0 in
23:34 79.7 °F 66.4 °F 30.1 in NO 2 mph 4 mph 64% 0 in
23:39 79.5 °F 66.4 °F 30.1 in NNO 1.5 mph 3.6 mph 64% 0 in
23:44 79.5 °F 66.4 °F 30.1 in Calm   5.2 mph 64% 0 in
23:49 79.5 °F 66.4 °F 30.1 in NNO 0.7 mph 5 mph 64% 0 in
23:54 79.5 °F 66.4 °F 30.1 in NNE 2.4 mph 5 mph 64% 0 in
23:59 79.5 °F 66.4 °F 30.1 in NE 2.4 mph 6.2 mph 64% 0 in
Murcia-Puente Tocinos, España
Compliments of Weather Underground - 3 mb

La estación de MeteoMurcia.com, publica sus datos en los siguientes proyectos:

Weather Underground PWS IMURCIAP2 Meteoclimatic www.awekas.at

W3Counter
Web Analytics